Time;durP1;ratioP1;P1;durP2;ratioP2;P2;SDS_P1;SDS_P2;PMS_P1;PMS_P2;Temp;Humidity;BMP_temperature;BMP_pressure;BME280_temperature;BME280_humidity;BME280_pressure;Samples;Min_cycle;Max_cycle;Signal;HPM_P1;HPM_P2
2022/08/27 00:01:58;;;;;;;15.05;7.07;;;;;;;;;;5053991;28;20025;-74
2022/08/27 00:04:23;;;;;;;11.90;6.75;;;;;;;;;;5053688;28;20107;-75
2022/08/27 00:06:49;;;;;;;17.77;7.30;;;;;;;;;;5055578;28;20032;-75
2022/08/27 00:09:14;;;;;;;11.18;6.82;;;;;;;;;;5055123;28;20302;-74
2022/08/27 00:11:40;;;;;;;13.02;7.22;;;;;;;;;;5053830;28;20043;-74
2022/08/27 00:14:05;;;;;;;12.70;6.67;;;;;;;;;;5055375;28;20017;-74
2022/08/27 00:16:31;;;;;;;10.75;6.85;;;;;;;;;;5054963;28;20320;-75
2022/08/27 00:18:57;;;;;;;15.05;7.15;;;;;;;;;;5054902;28;20049;-75
2022/08/27 00:21:22;;;;;;;12.68;6.97;;;;;;;;;;5055335;28;20392;-74
2022/08/27 00:23:47;;;;;;;9.98;6.80;;;;;;;;;;5054939;28;20029;-75
2022/08/27 00:26:14;;;;;;;10.67;6.97;;;;;;;;;;5054786;28;20032;-75
2022/08/27 00:28:40;;;;;;;12.02;7.20;;;;;;;;;;5053580;28;20253;-75
2022/08/27 00:31:06;;;;;;;10.02;6.60;;;;;;;;;;5054800;28;20024;-75
2022/08/27 00:33:32;;;;;;;11.02;7.43;;;;;;;;;;5054826;28;20397;-75
2022/08/27 00:35:58;;;;;;;12.55;6.90;;;;;;;;;;5053550;28;20024;-76
2022/08/27 00:38:23;;;;;;;12.93;7.07;;;;;;;;;;5054959;28;20021;-76
2022/08/27 00:40:49;;;;;;;10.80;7.28;;;;;;;;;;5055126;28;20190;-76
2022/08/27 00:43:24;;;;;;;10.38;6.90;;;;;;;;;;5054659;28;20059;-75
2022/08/27 00:45:52;;;;;;;11.48;6.43;;;;;;;;;;5053786;28;20020;-76
2022/08/27 00:48:20;;;;;;;10.55;6.93;;;;;;;;;;5054140;28;20029;-75
2022/08/27 00:50:50;;;;;;;16.27;6.53;;;;;;;;;;5053355;28;20025;-75
2022/08/27 00:53:22;;;;;;;9.93;6.25;;;;;;;;;;5053029;28;20036;-75
2022/08/27 00:56:15;;;;;;;11.32;6.70;;;;;;;;;;5054572;28;20125;-75
2022/08/27 00:58:46;;;;;;;13.75;7.25;;;;;;;;;;5054631;28;20029;-75
2022/08/27 01:01:23;;;;;;;13.48;7.18;;;;;;;;;;5054330;28;20095;-73
2022/08/27 01:03:51;;;;;;;15.32;7.25;;;;;;;;;;5054121;28;20085;-74
2022/08/27 01:06:19;;;;;;;17.25;7.68;;;;;;;;;;5052778;28;20447;-75
2022/08/27 01:08:50;;;;;;;15.00;6.57;;;;;;;;;;5054637;28;20162;-74
2022/08/27 01:11:15;;;;;;;9.73;6.93;;;;;;;;;;5054093;28;20036;-74
2022/08/27 01:13:41;;;;;;;12.65;7.30;;;;;;;;;;5053375;28;20029;-74
2022/08/27 01:16:07;;;;;;;18.20;6.93;;;;;;;;;;5054297;28;20068;-75
2022/08/27 01:18:36;;;;;;;13.25;7.15;;;;;;;;;;5054805;28;20024;-75
2022/08/27 01:21:22;;;;;;;13.02;7.07;;;;;;;;;;5054149;28;20024;-75
2022/08/27 01:23:56;;;;;;;17.40;7.28;;;;;;;;;;5052977;28;20074;-76
2022/08/27 01:26:23;;;;;;;13.32;7.25;;;;;;;;;;5052658;28;20025;-75
2022/08/27 01:28:49;;;;;;;10.32;6.82;;;;;;;;;;5053981;28;20024;-75
2022/08/27 01:31:15;;;;;;;14.38;6.80;;;;;;;;;;5054031;28;20343;-75
2022/08/27 01:33:51;;;;;;;17.53;7.47;;;;;;;;;;5052794;28;20031;-75
2022/08/27 01:36:17;;;;;;;11.20;6.63;;;;;;;;;;5054831;28;20643;-75
2022/08/27 01:38:42;;;;;;;15.23;6.25;;;;;;;;;;5054185;28;20021;-75
2022/08/27 01:41:07;;;;;;;8.47;6.43;;;;;;;;;;5054202;28;20024;-75
2022/08/27 01:43:32;;;;;;;11.53;6.67;;;;;;;;;;5054105;28;20254;-74
2022/08/27 01:45:58;;;;;;;10.50;6.60;;;;;;;;;;5053874;28;20253;-74
2022/08/27 01:48:23;;;;;;;20.20;7.25;;;;;;;;;;5052395;28;20258;-74
2022/08/27 01:50:49;;;;;;;11.70;6.78;;;;;;;;;;5054253;28;20036;-74
2022/08/27 01:53:18;;;;;;;13.75;6.45;;;;;;;;;;5053834;28;20068;-74
2022/08/27 01:55:45;;;;;;;13.32;6.63;;;;;;;;;;5053672;28;20029;-73
2022/08/27 01:58:12;;;;;;;16.02;7.25;;;;;;;;;;5053943;28;20024;-74
2022/08/27 02:00:42;;;;;;;10.57;7.15;;;;;;;;;;5053584;28;20104;-76
2022/08/27 02:03:08;;;;;;;9.77;6.80;;;;;;;;;;5058025;28;20500;-74
2022/08/27 02:05:34;;;;;;;14.23;7.68;;;;;;;;;;5057684;28;20041;-75
2022/08/27 02:07:59;;;;;;;8.30;6.75;;;;;;;;;;5056953;28;20444;-74
2022/08/27 02:10:29;;;;;;;15.15;7.57;;;;;;;;;;5057643;28;20056;-74
2022/08/27 02:12:54;;;;;;;11.75;7.65;;;;;;;;;;5058167;28;20112;-74
2022/08/27 02:15:21;;;;;;;9.18;6.68;;;;;;;;;;5057918;28;20048;-74
2022/08/27 02:17:46;;;;;;;11.65;7.20;;;;;;;;;;5056629;28;20020;-74
2022/08/27 02:20:12;;;;;;;11.02;7.55;;;;;;;;;;5058310;28;20096;-74
2022/08/27 02:22:38;;;;;;;13.23;7.53;;;;;;;;;;5058155;28;20032;-76
2022/08/27 02:25:05;;;;;;;11.75;7.00;;;;;;;;;;5056302;28;20025;-76
2022/08/27 02:27:31;;;;;;;10.60;7.15;;;;;;;;;;5056527;28;20490;-76
2022/08/27 02:29:56;;;;;;;14.43;7.07;;;;;;;;;;5056439;28;20028;-75
2022/08/27 02:32:22;;;;;;;13.20;7.23;;;;;;;;;;5057579;28;20020;-75
2022/08/27 02:34:47;;;;;;;15.50;7.17;;;;;;;;;;5057550;28;20671;-75
2022/08/27 02:37:13;;;;;;;12.05;6.93;;;;;;;;;;5057289;28;20253;-75
2022/08/27 02:39:38;;;;;;;10.63;7.63;;;;;;;;;;5057512;28;20047;-74
2022/08/27 02:42:04;;;;;;;13.38;7.85;;;;;;;;;;5056059;28;20025;-75
2022/08/27 02:44:30;;;;;;;16.30;7.18;;;;;;;;;;5055796;28;20060;-75
2022/08/27 02:46:56;;;;;;;10.77;7.18;;;;;;;;;;5057151;28;20451;-75
2022/08/27 02:49:21;;;;;;;9.70;6.93;;;;;;;;;;5057085;28;20061;-75
2022/08/27 02:51:47;;;;;;;12.73;7.25;;;;;;;;;;5057367;28;20017;-74
2022/08/27 02:54:13;;;;;;;12.80;7.70;;;;;;;;;;5055615;28;20036;-75
2022/08/27 02:56:38;;;;;;;11.77;7.68;;;;;;;;;;5057065;28;20261;-75
2022/08/27 02:59:03;;;;;;;18.77;7.57;;;;;;;;;;5056911;28;20021;-75
2022/08/27 03:01:29;;;;;;;21.63;7.90;;;;;;;;;;5056984;28;20262;-75
2022/08/27 03:03:56;;;;;;;15.25;8.05;;;;;;;;;;5057052;28;20024;-75
2022/08/27 03:06:21;;;;;;;13.32;8.50;;;;;;;;;;5055446;28;20024;-75
2022/08/27 03:08:46;;;;;;;11.07;8.00;;;;;;;;;;5057200;28;20036;-75
2022/08/27 03:11:12;;;;;;;13.43;7.65;;;;;;;;;;5056245;28;20268;-75
2022/08/27 03:13:38;;;;;;;10.38;7.57;;;;;;;;;;5056580;28;20532;-75
2022/08/27 03:16:05;;;;;;;14.73;7.80;;;;;;;;;;5055277;28;20086;-74
2022/08/27 03:18:31;;;;;;;16.77;8.13;;;;;;;;;;5055800;28;20451;-74
2022/08/27 03:20:59;;;;;;;12.68;7.80;;;;;;;;;;5056969;28;20017;-75
2022/08/27 03:23:27;;;;;;;12.38;7.80;;;;;;;;;;5056429;28;20021;-75
2022/08/27 03:25:55;;;;;;;11.88;7.78;;;;;;;;;;5056474;28;20536;-75
2022/08/27 03:28:24;;;;;;;14.98;7.70;;;;;;;;;;5056442;28;20025;-75
2022/08/27 03:30:52;;;;;;;10.95;7.90;;;;;;;;;;5056452;28;20029;-75
2022/08/27 03:33:19;;;;;;;15.65;8.40;;;;;;;;;;5056913;28;20021;-74
2022/08/27 03:35:45;;;;;;;11.52;7.38;;;;;;;;;;5056538;28;20033;-75
2022/08/27 03:38:11;;;;;;;18.58;8.48;;;;;;;;;;5056449;28;20084;-75
2022/08/27 03:40:36;;;;;;;13.53;7.70;;;;;;;;;;5056631;28;20017;-74
2022/08/27 03:43:02;;;;;;;13.85;7.93;;;;;;;;;;5055173;28;20396;-74
2022/08/27 03:45:29;;;;;;;15.07;8.07;;;;;;;;;;5054962;28;20037;-74
2022/08/27 03:47:54;;;;;;;12.82;7.47;;;;;;;;;;5056741;28;20029;-75
2022/08/27 03:50:20;;;;;;;14.68;8.07;;;;;;;;;;5056244;28;20501;-75
2022/08/27 03:52:45;;;;;;;12.18;7.93;;;;;;;;;;5056157;28;20100;-75
2022/08/27 03:55:11;;;;;;;13.40;8.02;;;;;;;;;;5056264;28;20028;-75
2022/08/27 03:57:36;;;;;;;14.85;8.07;;;;;;;;;;5056178;28;20025;-75
2022/08/27 04:00:04;;;;;;;9.20;7.47;;;;;;;;;;5056089;28;20382;-74
2022/08/27 04:02:30;;;;;;;14.68;8.02;;;;;;;;;;5054519;28;20654;-75
2022/08/27 04:04:56;;;;;;;12.15;8.18;;;;;;;;;;5055766;28;20029;-75
2022/08/27 04:07:21;;;;;;;22.55;8.63;;;;;;;;;;5056334;28;20029;-75
2022/08/27 04:09:47;;;;;;;13.75;7.40;;;;;;;;;;5054831;28;20098;-75
2022/08/27 04:12:12;;;;;;;12.25;8.30;;;;;;;;;;5054491;28;20032;-74
2022/08/27 04:14:37;;;;;;;15.93;8.00;;;;;;;;;;5054875;28;20031;-75
2022/08/27 04:17:03;;;;;;;12.52;6.85;;;;;;;;;;5056287;28;20265;-74
2022/08/27 04:19:31;;;;;;;11.10;7.88;;;;;;;;;;5055870;28;20025;-74
2022/08/27 04:22:01;;;;;;;13.32;8.20;;;;;;;;;;5056022;28;20474;-75
2022/08/27 04:24:28;;;;;;;14.70;7.70;;;;;;;;;;5053493;28;20025;-75
2022/08/27 04:26:53;;;;;;;13.00;8.13;;;;;;;;;;5055578;28;20025;-75
2022/08/27 04:29:18;;;;;;;10.82;7.70;;;;;;;;;;5054360;28;20024;-75
2022/08/27 04:31:44;;;;;;;14.77;8.03;;;;;;;;;;5055558;28;20112;-75
2022/08/27 04:34:09;;;;;;;11.83;7.20;;;;;;;;;;5055393;28;20627;-76
2022/08/27 04:36:34;;;;;;;11.20;7.03;;;;;;;;;;5055042;28;20262;-76
2022/08/27 04:39:00;;;;;;;15.70;8.10;;;;;;;;;;5055173;28;20100;-75
2022/08/27 04:41:26;;;;;;;16.67;8.10;;;;;;;;;;5055168;28;20478;-75
2022/08/27 04:43:56;;;;;;;13.75;8.57;;;;;;;;;;5055063;28;20024;-75
2022/08/27 04:46:26;;;;;;;15.65;9.02;;;;;;;;;;5053397;28;20481;-75
2022/08/27 04:48:52;;;;;;;11.90;8.38;;;;;;;;;;5054911;28;20033;-75
2022/08/27 04:51:18;;;;;;;15.63;9.18;;;;;;;;;;5055068;28;20067;-74
2022/08/27 04:53:43;;;;;;;15.35;8.68;;;;;;;;;;5053671;28;20498;-75
2022/08/27 04:56:12;;;;;;;13.77;8.98;;;;;;;;;;5054348;28;20141;-74
2022/08/27 04:58:38;;;;;;;13.02;9.75;;;;;;;;;;5054431;28;20028;-75
2022/08/27 05:01:03;;;;;;;14.77;9.40;;;;;;;;;;5052790;28;20021;-75
2022/08/27 05:03:28;;;;;;;17.80;10.00;;;;;;;;;;5053973;28;20265;-75
2022/08/27 05:05:59;;;;;;;19.83;11.25;;;;;;;;;;5053550;28;20277;-75
2022/08/27 05:08:24;;;;;;;22.52;11.77;;;;;;;;;;5053112;28;20119;-75
2022/08/27 05:10:50;;;;;;;19.93;12.17;;;;;;;;;;5052503;28;20116;-75
2022/08/27 05:13:19;;;;;;;18.08;11.90;;;;;;;;;;5052687;28;20286;-75
2022/08/27 05:15:44;;;;;;;16.58;11.13;;;;;;;;;;5053462;28;20542;-76
2022/08/27 05:18:10;;;;;;;19.98;11.50;;;;;;;;;;5053765;28;20060;-75
2022/08/27 05:20:43;;;;;;;17.38;10.20;;;;;;;;;;5053556;28;20475;-75
2022/08/27 05:23:08;;;;;;;14.68;10.23;;;;;;;;;;5053921;28;20466;-75
2022/08/27 05:25:38;;;;;;;15.05;10.50;;;;;;;;;;5053217;28;20032;-75
2022/08/27 05:28:03;;;;;;;19.98;10.57;;;;;;;;;;5053528;28;20029;-76
2022/08/27 05:30:29;;;;;;;17.67;10.73;;;;;;;;;;5053255;28;20363;-75
2022/08/27 05:32:54;;;;;;;16.63;10.52;;;;;;;;;;5053208;28;20056;-76
2022/08/27 05:35:19;;;;;;;21.80;11.33;;;;;;;;;;5051792;28;20075;-75
2022/08/27 05:37:45;;;;;;;17.67;10.93;;;;;;;;;;5051840;28;20312;-75
2022/08/27 05:40:11;;;;;;;15.80;10.77;;;;;;;;;;5053420;28;20262;-75
2022/08/27 05:42:36;;;;;;;19.23;11.45;;;;;;;;;;5053254;28;20029;-75
2022/08/27 05:45:01;;;;;;;20.50;10.93;;;;;;;;;;5052777;28;20075;-73
2022/08/27 05:47:26;;;;;;;18.33;10.93;;;;;;;;;;5051646;28;20258;-74
2022/08/27 05:49:53;;;;;;;18.50;12.57;;;;;;;;;;5053134;28;20021;-74
2022/08/27 05:52:18;;;;;;;20.13;11.63;;;;;;;;;;5053235;28;20083;-74
2022/08/27 05:54:43;;;;;;;19.85;11.32;;;;;;;;;;5053104;28;20429;-77
2022/08/27 05:57:09;;;;;;;19.15;11.57;;;;;;;;;;5052999;28;20441;-76
2022/08/27 06:02:19;;;;;;;25.75;14.57;;;;;;;;;;5053183;28;20394;-75
2022/08/27 06:04:44;;;;;;;26.50;13.98;;;;;;;;;;5052956;28;20025;-73
2022/08/27 06:07:10;;;;;;;22.52;14.77;;;;;;;;;;5053261;28;20032;-75
2022/08/27 06:09:36;;;;;;;25.75;15.55;;;;;;;;;;5051590;28;20021;-75
2022/08/27 06:12:02;;;;;;;20.23;15.30;;;;;;;;;;5053064;28;20086;-75
2022/08/27 06:14:27;;;;;;;22.13;14.48;;;;;;;;;;5053370;28;20108;-75
2022/08/27 06:16:52;;;;;;;20.35;12.77;;;;;;;;;;5052820;28;20033;-73
2022/08/27 06:19:18;;;;;;;15.90;11.77;;;;;;;;;;5052792;28;20367;-75
2022/08/27 06:21:44;;;;;;;17.98;12.20;;;;;;;;;;5051574;28;20025;-75
2022/08/27 06:24:11;;;;;;;15.15;11.00;;;;;;;;;;5053143;28;20033;-75
2022/08/27 06:26:37;;;;;;;19.13;11.80;;;;;;;;;;5052849;28;20367;-75
2022/08/27 06:29:05;;;;;;;15.13;11.13;;;;;;;;;;5052555;28;20463;-75
2022/08/27 06:31:31;;;;;;;16.80;11.35;;;;;;;;;;5053049;28;20035;-74
2022/08/27 06:34:00;;;;;;;19.45;12.18;;;;;;;;;;5052700;28;20033;-74
2022/08/27 06:36:25;;;;;;;21.50;11.50;;;;;;;;;;5052664;28;20021;-75
2022/08/27 06:38:51;;;;;;;17.90;11.90;;;;;;;;;;5052794;28;20025;-75
2022/08/27 06:41:20;;;;;;;16.05;12.15;;;;;;;;;;5052795;28;20035;-74
2022/08/27 06:43:45;;;;;;;14.70;11.77;;;;;;;;;;5052596;28;20052;-75
2022/08/27 06:46:14;;;;;;;16.03;10.90;;;;;;;;;;5052788;28;20462;-74
2022/08/27 06:48:39;;;;;;;14.90;9.98;;;;;;;;;;5056480;28;20258;-75
2022/08/27 06:51:26;;;;;;;18.50;11.73;;;;;;;;;;5056502;28;20394;-75
2022/08/27 06:53:53;;;;;;;16.20;11.23;;;;;;;;;;5056870;28;20029;-75
2022/08/27 06:56:18;;;;;;;15.63;10.52;;;;;;;;;;5056419;28;20071;-74
2022/08/27 06:58:44;;;;;;;16.10;11.32;;;;;;;;;;5055309;28;20457;-73
2022/08/27 07:01:22;;;;;;;15.45;10.05;;;;;;;;;;5056722;28;20028;-75
2022/08/27 07:03:47;;;;;;;15.48;9.70;;;;;;;;;;5056772;28;20039;-74
2022/08/27 07:06:15;;;;;;;13.60;9.43;;;;;;;;;;5056245;28;20025;-74
2022/08/27 07:08:40;;;;;;;15.95;10.00;;;;;;;;;;5056422;28;20025;-75
2022/08/27 07:11:08;;;;;;;12.48;9.88;;;;;;;;;;5056408;28;20025;-74
2022/08/27 07:13:34;;;;;;;16.15;9.70;;;;;;;;;;5055127;28;20075;-74
2022/08/27 07:16:04;;;;;;;14.23;8.70;;;;;;;;;;5056632;28;20021;-75
2022/08/27 07:18:30;;;;;;;14.07;9.40;;;;;;;;;;5055710;28;20072;-76
2022/08/27 07:20:55;;;;;;;12.90;9.68;;;;;;;;;;5056424;28;20051;-75
2022/08/27 07:23:20;;;;;;;13.70;9.32;;;;;;;;;;5056173;28;20367;-75
2022/08/27 07:25:45;;;;;;;15.55;9.38;;;;;;;;;;5056032;28;20028;-75
2022/08/27 07:28:11;;;;;;;13.70;10.10;;;;;;;;;;5055179;28;20024;-75
2022/08/27 07:30:36;;;;;;;12.83;10.20;;;;;;;;;;5056255;28;20051;-75
2022/08/27 07:33:02;;;;;;;15.82;9.68;;;;;;;;;;5055165;28;20258;-75
2022/08/27 07:35:27;;;;;;;16.40;10.57;;;;;;;;;;5056437;28;20017;-75
2022/08/27 07:37:53;;;;;;;15.48;10.27;;;;;;;;;;5061909;28;20052;-76
2022/08/27 07:40:18;;;;;;;17.07;10.90;;;;;;;;;;5063392;28;20032;-75
2022/08/27 07:45:28;;;;;;;16.23;9.98;;;;;;;;;;5065132;28;20032;-75
2022/08/27 07:47:54;;;;;;;12.40;10.52;;;;;;;;;;5063531;28;20060;-75
2022/08/27 07:50:20;;;;;;;16.67;11.52;;;;;;;;;;5064286;28;20032;-75
2022/08/27 07:52:46;;;;;;;15.75;11.18;;;;;;;;;;5064668;28;20088;-75
2022/08/27 07:55:12;;;;;;;18.13;11.30;;;;;;;;;;5065112;28;20028;-75
2022/08/27 07:57:39;;;;;;;13.93;9.95;;;;;;;;;;5062609;28;20025;-75
2022/08/27 08:00:09;;;;;;;15.38;10.57;;;;;;;;;;5062009;28;20478;-75
2022/08/27 08:02:34;;;;;;;15.77;10.25;;;;;;;;;;5062366;28;20029;-75
2022/08/27 08:04:59;;;;;;;14.38;10.10;;;;;;;;;;5063602;28;20043;-75
2022/08/27 08:07:25;;;;;;;17.77;11.32;;;;;;;;;;5063911;28;20037;-75
2022/08/27 08:09:50;;;;;;;17.77;11.52;;;;;;;;;;5064881;28;20025;-75
2022/08/27 08:12:16;;;;;;;14.90;11.47;;;;;;;;;;5064201;28;20490;-75
2022/08/27 08:14:41;;;;;;;16.38;11.48;;;;;;;;;;5062725;28;20258;-75
2022/08/27 08:17:06;;;;;;;14.48;10.73;;;;;;;;;;5059018;28;20036;-75
2022/08/27 08:19:32;;;;;;;14.70;11.43;;;;;;;;;;5054904;28;20052;-75
2022/08/27 08:21:58;;;;;;;17.65;12.02;;;;;;;;;;5053539;28;20261;-75
2022/08/27 08:24:23;;;;;;;18.50;12.07;;;;;;;;;;5054854;28;20044;-75
2022/08/27 08:26:48;;;;;;;16.80;12.23;;;;;;;;;;5054747;28;20112;-75
2022/08/27 08:29:13;;;;;;;21.93;12.90;;;;;;;;;;5054566;28;20381;-75
2022/08/27 08:31:39;;;;;;;18.00;12.55;;;;;;;;;;5054507;28;20297;-75
2022/08/27 08:34:05;;;;;;;20.38;13.40;;;;;;;;;;5053398;28;20429;-75
2022/08/27 08:36:31;;;;;;;20.15;14.25;;;;;;;;;;5055025;28;20024;-75
2022/08/27 08:38:56;;;;;;;20.92;13.52;;;;;;;;;;5054580;28;20449;-75
2022/08/27 08:41:21;;;;;;;20.73;13.40;;;;;;;;;;5054245;28;20028;-74
2022/08/27 08:43:50;;;;;;;20.93;13.87;;;;;;;;;;5054253;28;20287;-74
2022/08/27 08:46:44;;;;;;;19.02;13.30;;;;;;;;;;5054426;28;20071;-74
2022/08/27 08:49:25;;;;;;;21.65;13.93;;;;;;;;;;5054105;28;20107;-75
2022/08/27 08:51:53;;;;;;;20.10;13.77;;;;;;;;;;5054376;28;20082;-75
2022/08/27 08:54:23;;;;;;;19.33;13.10;;;;;;;;;;5053839;28;20501;-74
2022/08/27 08:57:00;;;;;;;19.85;13.35;;;;;;;;;;5054030;28;20379;-74
2022/08/27 08:59:36;;;;;;;17.95;11.88;;;;;;;;;;5054541;28;20025;-73
2022/08/27 09:02:04;;;;;;;14.52;10.40;;;;;;;;;;5054029;28;20025;-74
2022/08/27 09:04:30;;;;;;;17.45;11.00;;;;;;;;;;5053629;28;20498;-76
2022/08/27 09:07:08;;;;;;;14.27;10.50;;;;;;;;;;5053745;28;20025;-74
2022/08/27 09:09:47;;;;;;;14.73;10.45;;;;;;;;;;5053297;28;20032;-74
2022/08/27 09:12:23;;;;;;;14.20;9.43;;;;;;;;;;5053856;28;20035;-75
2022/08/27 09:15:14;;;;;;;15.18;9.63;;;;;;;;;;5054026;28;20021;-74
2022/08/27 09:17:40;;;;;;;12.93;8.82;;;;;;;;;;5053690;28;20052;-74
2022/08/27 09:20:07;;;;;;;10.80;8.82;;;;;;;;;;5052546;28;20428;-74
2022/08/27 09:22:52;;;;;;;13.50;8.98;;;;;;;;;;5053668;28;20100;-74
2022/08/27 09:25:19;;;;;;;15.95;9.10;;;;;;;;;;5053435;28;20020;-75
2022/08/27 09:27:46;;;;;;;11.82;9.02;;;;;;;;;;5053280;28;20021;-75
2022/08/27 09:30:19;;;;;;;17.92;9.55;;;;;;;;;;5053477;28;20032;-75
2022/08/27 09:32:50;;;;;;;15.53;10.43;;;;;;;;;;5053317;28;20581;-75
2022/08/27 09:35:16;;;;;;;15.40;10.02;;;;;;;;;;5052951;28;20268;-76
2022/08/27 09:37:44;;;;;;;15.65;10.02;;;;;;;;;;5053266;28;20029;-75
2022/08/27 09:40:22;;;;;;;13.65;9.35;;;;;;;;;;5051590;28;20021;-76
2022/08/27 09:42:51;;;;;;;14.57;10.07;;;;;;;;;;5053314;28;20529;-75
2022/08/27 09:45:22;;;;;;;14.20;10.00;;;;;;;;;;5053257;28;20111;-75
2022/08/27 09:47:51;;;;;;;17.25;9.13;;;;;;;;;;5052991;28;20032;-75
2022/08/27 09:50:20;;;;;;;16.85;9.88;;;;;;;;;;5053109;28;20029;-75
2022/08/27 09:52:54;;;;;;;13.98;9.60;;;;;;;;;;5052936;28;20033;-76
2022/08/27 09:55:28;;;;;;;22.33;9.88;;;;;;;;;;5052869;28;20074;-75
2022/08/27 09:57:54;;;;;;;14.82;9.10;;;;;;;;;;5052978;28;20021;-75
2022/08/27 10:00:30;;;;;;;16.50;9.45;;;;;;;;;;5051477;28;20074;-75
2022/08/27 10:02:59;;;;;;;13.88;9.43;;;;;;;;;;5051592;28;20542;-75
2022/08/27 10:05:37;;;;;;;11.57;7.78;;;;;;;;;;5052603;28;20033;-75
2022/08/27 10:08:21;;;;;;;10.02;7.88;;;;;;;;;;5053237;28;20021;-75
2022/08/27 10:10:59;;;;;;;9.65;8.05;;;;;;;;;;5051397;28;20025;-75
2022/08/27 10:13:36;;;;;;;11.02;8.23;;;;;;;;;;5052817;28;20035;-75
2022/08/27 10:16:35;;;;;;;10.85;7.45;;;;;;;;;;5051486;28;20025;-75
2022/08/27 10:19:15;;;;;;;9.32;7.25;;;;;;;;;;5052647;28;20504;-76
2022/08/27 10:21:55;;;;;;;9.48;7.22;;;;;;;;;;5053801;28;20043;-76
2022/08/27 10:24:58;;;;;;;8.15;6.47;;;;;;;;;;5055384;28;20025;-75
2022/08/27 10:27:40;;;;;;;8.48;6.40;;;;;;;;;;5056609;28;20021;-74
2022/08/27 10:30:17;;;;;;;8.65;6.60;;;;;;;;;;5056543;28;20493;-75
2022/08/27 10:32:48;;;;;;;6.05;5.45;;;;;;;;;;5056437;28;20515;-75
2022/08/27 10:35:21;;;;;;;6.30;5.07;;;;;;;;;;5056246;28;20056;-74
2022/08/27 10:38:44;;;;;;;7.00;5.30;;;;;;;;;;5055117;28;20107;-75
2022/08/27 10:41:14;;;;;;;4.68;4.18;;;;;;;;;;5037602;28;20029;-76
2022/08/27 10:44:08;;;;;;;5.07;4.57;;;;;;;;;;5054823;28;20059;-76
2022/08/27 10:47:03;;;;;;;6.37;4.87;;;;;;;;;;5056494;28;20490;-74
2022/08/27 10:49:42;;;;;;;4.10;2.97;;;;;;;;;;5056740;28;20280;-74
2022/08/27 10:52:26;;;;;;;4.88;2.30;;;;;;;;;;5057051;28;20021;-75
2022/08/27 10:55:11;;;;;;;1.65;1.52;;;;;;;;;;5054974;28;20070;-75
2022/08/27 10:57:54;;;;;;;2.13;1.80;;;;;;;;;;5056527;28;20017;-74
2022/08/27 11:00:22;;;;;;;2.83;2.03;;;;;;;;;;5056269;28;20027;-74
2022/08/27 11:03:10;;;;;;;3.17;2.30;;;;;;;;;;5056354;28;20104;-75
2022/08/27 11:05:42;;;;;;;2.60;1.98;;;;;;;;;;5055986;28;20491;-74
2022/08/27 11:08:17;;;;;;;4.82;2.13;;;;;;;;;;5056622;28;20556;-75
2022/08/27 11:10:50;;;;;;;4.03;1.70;;;;;;;;;;5056154;28;20057;-74
2022/08/27 11:13:32;;;;;;;2.03;1.48;;;;;;;;;;5055965;28;20390;-75
2022/08/27 11:16:00;;;;;;;1.70;1.40;;;;;;;;;;5056149;28;20036;-74
2022/08/27 11:18:43;;;;;;;1.38;1.10;;;;;;;;;;5056306;28;20025;-73
2022/08/27 11:21:32;;;;;;;10.02;1.10;;;;;;;;;;5054851;28;20532;-74
2022/08/27 11:24:10;;;;;;;1.88;1.10;;;;;;;;;;5055675;28;20502;-74
2022/08/27 11:26:38;;;;;;;1.20;1.08;;;;;;;;;;5056225;28;20056;-74
2022/08/27 11:29:15;;;;;;;1.65;1.08;;;;;;;;;;5054597;28;20020;-75
2022/08/27 11:31:49;;;;;;;1.40;1.27;;;;;;;;;;5055944;28;20036;-74
2022/08/27 11:34:47;;;;;;;1.80;1.10;;;;;;;;;;5055750;28;20130;-73
2022/08/27 11:37:30;;;;;;;1.35;1.08;;;;;;;;;;5056087;28;20072;-75
2022/08/27 11:40:05;;;;;;;1.17;1.05;;;;;;;;;;5056089;28;20028;-75
2022/08/27 11:42:50;;;;;;;6.53;1.25;;;;;;;;;;5055780;28;20025;-75
2022/08/27 11:45:27;;;;;;;1.45;1.30;;;;;;;;;;5054481;28;20060;-75
2022/08/27 11:47:58;;;;;;;1.35;1.20;;;;;;;;;;5056138;28;20017;-75
2022/08/27 11:50:25;;;;;;;2.45;1.38;;;;;;;;;;5056066;28;20033;-74
2022/08/27 11:53:00;;;;;;;1.55;1.40;;;;;;;;;;5054515;28;20040;-75
2022/08/27 11:55:27;;;;;;;1.77;1.35;;;;;;;;;;5055637;28;20021;-75
2022/08/27 11:58:05;;;;;;;1.80;1.50;;;;;;;;;;5056218;28;20086;-74
2022/08/27 12:00:34;;;;;;;1.95;1.65;;;;;;;;;;5054399;28;20020;-74
2022/08/27 12:03:04;;;;;;;2.88;1.75;;;;;;;;;;5054410;28;20394;-74
2022/08/27 12:05:38;;;;;;;2.55;1.83;;;;;;;;;;5055416;28;20163;-75
2022/08/27 12:08:28;;;;;;;2.40;1.95;;;;;;;;;;5055644;28;20539;-74
2022/08/27 12:11:11;;;;;;;2.30;1.85;;;;;;;;;;5054686;28;20033;-74
2022/08/27 12:13:54;;;;;;;2.35;2.08;;;;;;;;;;5055348;28;20029;-74
2022/08/27 12:16:31;;;;;;;2.40;1.90;;;;;;;;;;5053848;28;20111;-75
2022/08/27 12:19:33;;;;;;;2.22;2.03;;;;;;;;;;5053651;28;20447;-74
2022/08/27 12:22:20;;;;;;;2.67;2.00;;;;;;;;;;5055181;28;20068;-74
2022/08/27 12:24:52;;;;;;;2.88;2.10;;;;;;;;;;5055060;28;20028;-74
2022/08/27 12:27:20;;;;;;;2.70;2.20;;;;;;;;;;5054655;28;20025;-75
2022/08/27 12:29:54;;;;;;;4.18;2.25;;;;;;;;;;5054628;28;20025;-75
2022/08/27 12:32:25;;;;;;;;;;;;;;;;;;5055168;28;20063;-74
2022/08/27 12:35:01;;;;;;;6.57;2.72;;;;;;;;;;5054497;28;19908;-73
2022/08/27 12:37:41;;;;;;;2.70;2.20;;;;;;;;;;5053398;28;20029;-74
2022/08/27 12:40:28;;;;;;;2.33;2.10;;;;;;;;;;5054502;28;20071;-74
2022/08/27 12:43:12;;;;;;;3.67;2.75;;;;;;;;;;5054940;28;20116;-74
2022/08/27 12:45:45;;;;;;;;;;;;;;;;;;5053872;28;20055;-74
2022/08/27 12:48:11;;;;;;;4.20;2.72;;;;;;;;;;5054241;28;19982;-74
2022/08/27 12:50:37;;;;;;;3.15;2.85;;;;;;;;;;5055109;28;20458;-75
2022/08/27 12:53:18;;;;;;;4.63;3.60;;;;;;;;;;5054182;28;20024;-75
2022/08/27 12:55:56;;;;;;;5.15;3.33;;;;;;;;;;5054055;28;20075;-74
2022/08/27 12:58:38;;;;;;;6.10;3.42;;;;;;;;;;5054535;28;20029;-74
2022/08/27 13:01:19;;;;;;;9.07;5.90;;;;;;;;;;5054138;28;20060;-74
2022/08/27 13:03:52;;;;;;;5.32;4.05;;;;;;;;;;5052991;28;20029;-74
2022/08/27 13:06:25;;;;;;;5.15;4.18;;;;;;;;;;5053854;28;20041;-75
2022/08/27 13:08:56;;;;;;;6.25;4.57;;;;;;;;;;5052911;28;20483;-74
2022/08/27 13:11:23;;;;;;;11.02;6.18;;;;;;;;;;5053985;28;20456;-74
2022/08/27 13:13:50;;;;;;;9.90;5.68;;;;;;;;;;5054035;28;20025;-74
2022/08/27 13:16:18;;;;;;;7.65;5.72;;;;;;;;;;5052492;28;20025;-74
2022/08/27 13:18:48;;;;;;;5.47;4.97;;;;;;;;;;5053462;28;20339;-74
2022/08/27 13:21:23;;;;;;;6.30;5.65;;;;;;;;;;5054080;28;20017;-74
2022/08/27 13:24:00;;;;;;;6.65;4.90;;;;;;;;;;5053783;28;20025;-75
2022/08/27 13:26:32;;;;;;;8.10;5.95;;;;;;;;;;5054466;28;20031;-74
2022/08/27 13:28:59;;;;;;;9.25;5.35;;;;;;;;;;5053624;28;20100;-75
2022/08/27 13:31:27;;;;;;;9.85;6.47;;;;;;;;;;5053539;28;20037;-75
2022/08/27 13:33:57;;;;;;;8.48;4.63;;;;;;;;;;5053829;28;20024;-74
2022/08/27 13:36:31;;;;;;;6.78;4.82;;;;;;;;;;5053776;28;20025;-74
2022/08/27 13:38:58;;;;;;;11.02;6.05;;;;;;;;;;5053936;28;20454;-74
2022/08/27 13:41:32;;;;;;;6.78;5.45;;;;;;;;;;5053410;28;20024;-73
2022/08/27 13:44:09;;;;;;;7.40;6.00;;;;;;;;;;5053149;28;20438;-74
2022/08/27 13:46:45;;;;;;;8.52;6.15;;;;;;;;;;5053447;28;20073;-74
2022/08/27 13:49:14;;;;;;;12.88;7.28;;;;;;;;;;5052206;28;20385;-75
2022/08/27 13:51:40;;;;;;;11.35;7.00;;;;;;;;;;5053397;28;20017;-75
2022/08/27 13:54:12;;;;;;;11.73;7.68;;;;;;;;;;5053092;28;20021;-74
2022/08/27 13:56:46;;;;;;;14.15;8.15;;;;;;;;;;5053496;28;20032;-75
2022/08/27 13:59:21;;;;;;;11.50;7.78;;;;;;;;;;5053194;28;20025;-73
2022/08/27 14:02:09;;;;;;;11.70;8.55;;;;;;;;;;5053195;28;20090;-75
2022/08/27 14:04:45;;;;;;;13.10;8.25;;;;;;;;;;5052669;28;20033;-74
2022/08/27 14:07:19;;;;;;;11.43;8.30;;;;;;;;;;5053176;28;20029;-74
2022/08/27 14:09:49;;;;;;;11.70;8.35;;;;;;;;;;5053199;28;20032;-75
2022/08/27 14:12:27;;;;;;;10.95;7.70;;;;;;;;;;5052979;28;20032;-75
2022/08/27 14:14:53;;;;;;;9.73;6.95;;;;;;;;;;5053145;28;20035;-74
2022/08/27 14:17:36;;;;;;;9.63;7.30;;;;;;;;;;5052909;28;20070;-74
2022/08/27 14:20:04;;;;;;;11.30;7.00;;;;;;;;;;5053260;28;20052;-73
2022/08/27 14:22:30;;;;;;;10.05;7.20;;;;;;;;;;5051925;28;20395;-74
2022/08/27 14:24:55;;;;;;;7.73;6.43;;;;;;;;;;5052951;28;20036;-74
2022/08/27 14:27:20;;;;;;;9.67;7.00;;;;;;;;;;5052901;28;20266;-74
2022/08/27 14:29:48;;;;;;;8.70;7.25;;;;;;;;;;5053016;28;20338;-74
2022/08/27 14:32:15;;;;;;;10.60;6.93;;;;;;;;;;5053068;28;20020;-73
2022/08/27 14:34:41;;;;;;;10.32;7.43;;;;;;;;;;5052851;28;20025;-74
2022/08/27 14:37:06;;;;;;;9.43;7.38;;;;;;;;;;5053083;28;20025;-73
2022/08/27 14:39:32;;;;;;;10.10;7.60;;;;;;;;;;5052863;28;20108;-74
2022/08/27 14:41:57;;;;;;;12.80;8.43;;;;;;;;;;5053144;28;20049;-72
2022/08/27 14:44:22;;;;;;;10.88;7.88;;;;;;;;;;5052893;28;20116;-73
2022/08/27 14:46:48;;;;;;;11.23;7.87;;;;;;;;;;5053221;28;20166;-73
2022/08/27 14:49:21;;;;;;;10.15;7.55;;;;;;;;;;5052798;28;20262;-73
2022/08/27 14:51:47;;;;;;;10.63;6.93;;;;;;;;;;5053175;28;20033;-74
2022/08/27 14:54:12;;;;;;;10.38;6.63;;;;;;;;;;5052040;28;20033;-73